sensor_id;sensor_type;location;lat;lon;timestamp;pressure;altitude;pressure_sealevel;temperature;humidity
62150;BME280;48134;53.586;10.610;2024-03-02T00:02:21;99870.75;;;6.49;100.00
62150;BME280;48134;53.586;10.610;2024-03-02T00:04:54;99871.28;;;6.46;100.00
62150;BME280;48134;53.586;10.610;2024-03-02T00:07:27;99875.34;;;6.54;100.00
62150;BME280;48134;53.586;10.610;2024-03-02T00:09:55;99871.28;;;6.46;100.00
62150;BME280;48134;53.586;10.610;2024-03-02T00:12:30;99875.63;;;6.47;100.00
62150;BME280;48134;53.586;10.610;2024-03-02T00:15:05;99873.19;;;6.45;100.00
62150;BME280;48134;53.586;10.610;2024-03-02T00:17:39;99872.91;;;6.42;100.00
62150;BME280;48134;53.586;10.610;2024-03-02T00:20:17;99868.59;;;6.41;100.00
62150;BME280;48134;53.586;10.610;2024-03-02T00:22:51;99869.94;;;6.43;100.00
62150;BME280;48134;53.586;10.610;2024-03-02T00:25:24;99859.41;;;6.42;100.00
62150;BME280;48134;53.586;10.610;2024-03-02T00:27:59;99860.75;;;6.44;100.00
62150;BME280;48134;53.586;10.610;2024-03-02T00:30:56;99860.75;;;6.39;100.00
62150;BME280;48134;53.586;10.610;2024-03-02T00:33:32;99852.38;;;6.36;100.00
62150;BME280;48134;53.586;10.610;2024-03-02T00:36:00;99844.84;;;6.33;100.00
62150;BME280;48134;53.586;10.610;2024-03-02T00:38:42;99848.88;;;6.30;100.00
62150;BME280;48134;53.586;10.610;2024-03-02T00:41:21;99848.31;;;6.28;100.00
62150;BME280;48134;53.586;10.610;2024-03-02T00:43:58;99850.75;;;6.29;100.00
62150;BME280;48134;53.586;10.610;2024-03-02T00:46:27;99849.41;;;6.27;100.00
62150;BME280;48134;53.586;10.610;2024-03-02T00:48:58;99857.78;;;6.25;100.00
62150;BME280;48134;53.586;10.610;2024-03-02T00:51:33;99857.78;;;6.25;100.00
62150;BME280;48134;53.586;10.610;2024-03-02T00:54:09;99864.53;;;6.28;100.00
62150;BME280;48134;53.586;10.610;2024-03-02T00:56:43;99855.63;;;6.22;100.00
62150;BME280;48134;53.586;10.610;2024-03-02T00:59:17;99852.41;;;6.20;100.00
62150;BME280;48134;53.586;10.610;2024-03-02T01:01:45;99854.56;;;6.18;100.00
62150;BME280;48134;53.586;10.610;2024-03-02T01:04:13;99851.31;;;6.21;100.00
62150;BME280;48134;53.586;10.610;2024-03-02T01:06:47;99854.31;;;6.15;100.00
62150;BME280;48134;53.586;10.610;2024-03-02T01:09:15;99841.31;;;6.11;100.00
62150;BME280;48134;53.586;10.610;2024-03-02T01:11:49;99848.34;;;6.12;100.00
62150;BME280;48134;53.586;10.610;2024-03-02T01:14:24;99846.44;;;6.13;100.00
62150;BME280;48134;53.586;10.610;2024-03-02T01:16:57;99845.63;;;6.07;100.00
62150;BME280;48134;53.586;10.610;2024-03-02T01:19:31;99844.84;;;6.12;100.00
62150;BME280;48134;53.586;10.610;2024-03-02T01:22:05;99844.03;;;6.06;100.00
62150;BME280;48134;53.586;10.610;2024-03-02T01:24:33;99843.47;;;6.04;100.00
62150;BME280;48134;53.586;10.610;2024-03-02T01:27:01;99841.84;;;6.03;100.00
62150;BME280;48134;53.586;10.610;2024-03-02T01:29:31;99842.13;;;6.02;100.00
62150;BME280;48134;53.586;10.610;2024-03-02T01:32:04;99839.97;;;6.04;100.00
62150;BME280;48134;53.586;10.610;2024-03-02T01:34:37;99835.38;;;5.99;100.00
62150;BME280;48134;53.586;10.610;2024-03-02T01:37:11;99840.22;;;5.97;100.00
62150;BME280;48134;53.586;10.610;2024-03-02T01:39:39;99835.63;;;5.98;100.00
62150;BME280;48134;53.586;10.610;2024-03-02T01:42:12;99835.34;;;5.94;100.00
62150;BME280;48134;53.586;10.610;2024-03-02T01:44:47;99829.97;;;5.94;100.00
62150;BME280;48134;53.586;10.610;2024-03-02T01:47:20;99825.09;;;5.96;100.00
62150;BME280;48134;53.586;10.610;2024-03-02T01:49:49;99830.75;;;5.94;100.00
62150;BME280;48134;53.586;10.610;2024-03-02T01:52:22;99828.84;;;5.95;100.00
62150;BME280;48134;53.586;10.610;2024-03-02T01:54:50;99824.00;;;5.92;100.00
62150;BME280;48134;53.586;10.610;2024-03-02T01:57:19;99823.75;;;5.88;100.00
62150;BME280;48134;53.586;10.610;2024-03-02T01:59:49;99814.81;;;5.88;100.00
62150;BME280;48134;53.586;10.610;2024-03-02T02:02:17;99818.34;;;5.83;100.00
62150;BME280;48134;53.586;10.610;2024-03-02T02:04:51;99812.94;;;5.83;100.00
62150;BME280;48134;53.586;10.610;2024-03-02T02:07:19;99813.22;;;5.82;100.00
62150;BME280;48134;53.586;10.610;2024-03-02T02:09:47;99808.88;;;5.81;100.00
62150;BME280;48134;53.586;10.610;2024-03-02T02:12:21;99814.28;;;5.81;100.00
62150;BME280;48134;53.586;10.610;2024-03-02T02:14:56;99808.06;;;5.75;100.00
62150;BME280;48134;53.586;10.610;2024-03-02T02:17:29;99808.59;;;5.77;100.00
62150;BME280;48134;53.586;10.610;2024-03-02T02:20:03;99810.50;;;5.76;100.00
62150;BME280;48134;53.586;10.610;2024-03-02T02:22:38;99819.41;;;5.72;100.00
62150;BME280;48134;53.586;10.610;2024-03-02T02:25:07;99817.50;;;5.67;100.00
62150;BME280;48134;53.586;10.610;2024-03-02T02:27:40;99809.41;;;5.72;100.00
62150;BME280;48134;53.586;10.610;2024-03-02T02:30:13;99809.69;;;5.76;100.00
62150;BME280;48134;53.586;10.610;2024-03-02T02:32:42;99811.56;;;5.65;100.00
62150;BME280;48134;53.586;10.610;2024-03-02T02:35:10;99803.19;;;5.67;100.00
62150;BME280;48134;53.586;10.610;2024-03-02T02:37:47;99802.41;;;5.76;100.00
62150;BME280;48134;53.586;10.610;2024-03-02T02:40:15;99809.41;;;5.72;100.00
62150;BME280;48134;53.586;10.610;2024-03-02T02:42:50;99809.69;;;5.71;100.00
62150;BME280;48134;53.586;10.610;2024-03-02T02:45:24;99816.16;;;5.75;100.00
62150;BME280;48134;53.586;10.610;2024-03-02T02:47:57;99819.66;;;5.70;100.00
62150;BME280;48134;53.586;10.610;2024-03-02T02:50:33;99821.84;;;5.73;100.00
62150;BME280;48134;53.586;10.610;2024-03-02T02:53:05;99829.66;;;5.70;100.00
62150;BME280;48134;53.586;10.610;2024-03-02T02:55:41;99824.53;;;5.73;100.00
62150;BME280;48134;53.586;10.610;2024-03-02T02:58:10;99817.78;;;5.71;100.00
62150;BME280;48134;53.586;10.610;2024-03-02T03:00:43;99824.81;;;5.72;100.00
62150;BME280;48134;53.586;10.610;2024-03-02T03:03:16;99823.72;;;5.73;100.00
62150;BME280;48134;53.586;10.610;2024-03-02T03:05:49;99820.22;;;5.72;100.00
62150;BME280;48134;53.586;10.610;2024-03-02T03:08:25;99815.88;;;5.66;100.00
62150;BME280;48134;53.586;10.610;2024-03-02T03:10:58;99808.06;;;5.70;100.00
62150;BME280;48134;53.586;10.610;2024-03-02T03:13:31;99814.81;;;5.72;100.00
62150;BME280;48134;53.586;10.610;2024-03-02T03:16:00;99809.41;;;5.67;100.00
62150;BME280;48134;53.586;10.610;2024-03-02T03:18:28;99816.97;;;5.65;100.00
62150;BME280;48134;53.586;10.610;2024-03-02T03:21:01;99814.25;;;5.60;100.00
62150;BME280;48134;53.586;10.610;2024-03-02T03:23:31;99808.84;;;5.60;100.00
62150;BME280;48134;53.586;10.610;2024-03-02T03:25:59;99816.44;;;5.58;100.00
62150;BME280;48134;53.586;10.610;2024-03-02T03:28:28;99808.84;;;5.55;100.00
62150;BME280;48134;53.586;10.610;2024-03-02T03:31:01;99809.13;;;5.53;100.00
62150;BME280;48134;53.586;10.610;2024-03-02T03:33:30;99807.50;;;5.52;100.00
62150;BME280;48134;53.586;10.610;2024-03-02T03:36:04;99805.63;;;5.53;100.00
62150;BME280;48134;53.586;10.610;2024-03-02T03:38:33;99802.09;;;5.52;100.00
62150;BME280;48134;53.586;10.610;2024-03-02T03:41:01;99798.88;;;5.50;100.00
62150;BME280;48134;53.586;10.610;2024-03-02T03:43:35;99802.66;;;5.54;100.00
62150;BME280;48134;53.586;10.610;2024-03-02T03:46:04;99804.78;;;5.52;100.00
62150;BME280;48134;53.586;10.610;2024-03-02T03:48:32;99796.97;;;5.51;100.00
62150;BME280;48134;53.586;10.610;2024-03-02T03:51:05;99803.69;;;5.48;100.00
62150;BME280;48134;53.586;10.610;2024-03-02T03:53:35;99801.28;;;5.52;100.00
62150;BME280;48134;53.586;10.610;2024-03-02T03:56:08;99799.94;;;5.54;100.00
62150;BME280;48134;53.586;10.610;2024-03-02T03:58:41;99800.22;;;5.53;100.00
62150;BME280;48134;53.586;10.610;2024-03-02T04:01:14;99796.97;;;5.51;100.00
62150;BME280;48134;53.586;10.610;2024-03-02T04:03:48;99805.06;;;5.51;100.00
62150;BME280;48134;53.586;10.610;2024-03-02T04:06:21;99806.97;;;5.50;100.00
62150;BME280;48134;53.586;10.610;2024-03-02T04:08:50;99801.28;;;5.47;100.00
62150;BME280;48134;53.586;10.610;2024-03-02T04:11:19;99801.28;;;5.52;100.00
62150;BME280;48134;53.586;10.610;2024-03-02T04:13:47;99799.94;;;5.49;100.00
62150;BME280;48134;53.586;10.610;2024-03-02T04:16:20;99804.25;;;5.50;100.00
62150;BME280;48134;53.586;10.610;2024-03-02T04:18:54;99799.13;;;5.49;100.00
62150;BME280;48134;53.586;10.610;2024-03-02T04:21:28;99798.31;;;5.48;100.00
62150;BME280;48134;53.586;10.610;2024-03-02T04:24:03;99798.56;;;5.47;100.00
62150;BME280;48134;53.586;10.610;2024-03-02T04:26:31;99799.41;;;5.47;100.00
62150;BME280;48134;53.586;10.610;2024-03-02T04:29:05;99802.09;;;5.47;100.00
62150;BME280;48134;53.586;10.610;2024-03-02T04:31:38;99812.34;;;5.45;100.00
62150;BME280;48134;53.586;10.610;2024-03-02T04:34:11;99807.78;;;5.45;100.00
62150;BME280;48134;53.586;10.610;2024-03-02T04:36:39;99807.50;;;5.47;100.00
62150;BME280;48134;53.586;10.610;2024-03-02T04:39:14;99800.47;;;5.46;100.00
62150;BME280;48134;53.586;10.610;2024-03-02T04:41:47;99803.97;;;5.47;100.00
62150;BME280;48134;53.586;10.610;2024-03-02T04:44:20;99809.91;;;5.43;100.00
62150;BME280;48134;53.586;10.610;2024-03-02T04:46:48;99808.00;;;5.44;100.00
62150;BME280;48134;53.586;10.610;2024-03-02T04:49:22;99809.91;;;5.43;100.00
62150;BME280;48134;53.586;10.610;2024-03-02T04:51:55;99811.81;;;5.43;100.00
62150;BME280;48134;53.586;10.610;2024-03-02T04:54:30;99816.38;;;5.37;100.00
62150;BME280;48134;53.586;10.610;2024-03-02T04:56:58;99814.50;;;5.38;100.00
62150;BME280;48134;53.586;10.610;2024-03-02T04:59:31;99813.13;;;5.35;100.00
62150;BME280;48134;53.586;10.610;2024-03-02T05:02:05;99809.06;;;5.33;100.00
62150;BME280;48134;53.586;10.610;2024-03-02T05:04:38;99804.50;;;5.33;100.00
62150;BME280;48134;53.586;10.610;2024-03-02T05:07:12;99807.97;;;5.28;100.00
62150;BME280;48134;53.586;10.610;2024-03-02T05:09:46;99804.22;;;5.30;100.00
62150;BME280;48134;53.586;10.610;2024-03-02T05:12:20;99809.09;;;5.27;100.00
62150;BME280;48134;53.586;10.610;2024-03-02T05:15:07;99810.16;;;5.26;100.00
62150;BME280;48134;53.586;10.610;2024-03-02T05:17:42;99808.81;;;5.29;100.00
62150;BME280;48134;53.586;10.610;2024-03-02T05:20:15;99800.72;;;5.29;100.00
62150;BME280;48134;53.586;10.610;2024-03-02T05:22:49;99791.78;;;5.28;100.00
62150;BME280;48134;53.586;10.610;2024-03-02T05:25:18;99786.66;;;5.27;100.00
62150;BME280;48134;53.586;10.610;2024-03-02T05:27:52;99782.88;;;5.23;100.00
62150;BME280;48134;53.586;10.610;2024-03-02T05:30:25;99781.81;;;5.24;100.00
62150;BME280;48134;53.586;10.610;2024-03-02T05:32:59;99784.25;;;5.25;100.00
62150;BME280;48134;53.586;10.610;2024-03-02T05:35:27;99787.75;;;5.26;100.00
62150;BME280;48134;53.586;10.610;2024-03-02T05:37:55;99792.91;;;5.27;100.00
62150;BME280;48134;53.586;10.610;2024-03-02T05:40:29;99796.41;;;5.33;100.00
62150;BME280;48134;53.586;10.610;2024-03-02T05:42:58;99797.75;;;5.36;100.00
62150;BME280;48134;53.586;10.610;2024-03-02T05:45:26;99798.31;;;5.38;100.00
62150;BME280;48134;53.586;10.610;2024-03-02T05:47:54;99802.06;;;5.37;100.00
62150;BME280;48134;53.586;10.610;2024-03-02T05:50:22;99796.94;;;5.35;100.00
62150;BME280;48134;53.586;10.610;2024-03-02T05:52:55;99798.03;;;5.39;100.00
62150;BME280;48134;53.586;10.610;2024-03-02T05:55:30;99798.56;;;5.36;100.00
62150;BME280;48134;53.586;10.610;2024-03-02T05:57:58;99813.13;;;5.35;100.00
62150;BME280;48134;53.586;10.610;2024-03-02T06:00:42;99821.00;;;5.47;100.00
62150;BME280;48134;53.586;10.610;2024-03-02T06:03:15;99823.41;;;5.43;100.00
62150;BME280;48134;53.586;10.610;2024-03-02T06:05:48;99817.44;;;5.31;100.00
62150;BME280;48134;53.586;10.610;2024-03-02T06:08:17;99812.06;;;5.36;100.00
62150;BME280;48134;53.586;10.610;2024-03-02T06:10:52;99812.34;;;5.35;100.00
62150;BME280;48134;53.586;10.610;2024-03-02T06:13:26;99807.72;;;5.35;100.00
62150;BME280;48134;53.586;10.610;2024-03-02T06:15:54;99801.53;;;5.35;100.00
62150;BME280;48134;53.586;10.610;2024-03-02T06:18:22;99808.00;;;5.34;100.00
62150;BME280;48134;53.586;10.610;2024-03-02T06:20:55;99808.28;;;5.32;100.00
62150;BME280;48134;53.586;10.610;2024-03-02T06:23:29;99809.63;;;5.35;100.00
62150;BME280;48134;53.586;10.610;2024-03-02T06:26:04;99823.66;;;5.42;100.00
62150;BME280;48134;53.586;10.610;2024-03-02T06:28:32;99825.56;;;5.36;100.00
62150;BME280;48134;53.586;10.610;2024-03-02T06:31:01;99823.13;;;5.40;100.00
62150;BME280;48134;53.586;10.610;2024-03-02T06:33:29;99818.00;;;5.43;100.00
62150;BME280;48134;53.586;10.610;2024-03-02T06:35:57;99825.28;;;5.48;100.00
62150;BME280;48134;53.586;10.610;2024-03-02T06:38:26;99822.06;;;5.46;100.00
62150;BME280;48134;53.586;10.610;2024-03-02T06:40:59;99836.38;;;5.52;100.00
62150;BME280;48134;53.586;10.610;2024-03-02T06:43:34;99832.06;;;5.66;100.00
62150;BME280;48134;53.586;10.610;2024-03-02T06:46:02;99825.06;;;5.65;100.00
62150;BME280;48134;53.586;10.610;2024-03-02T06:48:31;99827.47;;;5.61;100.00
62150;BME280;48134;53.586;10.610;2024-03-02T06:51:00;99822.34;;;5.60;100.00
62150;BME280;48134;53.586;10.610;2024-03-02T06:53:33;99813.47;;;5.59;100.00
62150;BME280;48134;53.586;10.610;2024-03-02T06:56:01;99818.81;;;5.49;100.00
62150;BME280;48134;53.586;10.610;2024-03-02T06:58:36;99812.91;;;5.47;100.00
62150;BME280;48134;53.586;10.610;2024-03-02T07:01:09;99818.81;;;5.49;100.00
62150;BME280;48134;53.586;10.610;2024-03-02T07:03:42;99829.66;;;5.59;100.00
62150;BME280;48134;53.586;10.610;2024-03-02T07:06:16;99834.75;;;5.66;100.00
62150;BME280;48134;53.586;10.610;2024-03-02T07:08:44;99831.28;;;5.71;100.00
62150;BME280;48134;53.586;10.610;2024-03-02T07:11:17;99826.69;;;5.76;100.00
62150;BME280;48134;53.586;10.610;2024-03-02T07:13:46;99823.47;;;5.85;100.00
62150;BME280;48134;53.586;10.610;2024-03-02T07:16:19;99828.88;;;5.90;100.00
62150;BME280;48134;53.586;10.610;2024-03-02T07:18:55;99828.03;;;5.89;100.00
62150;BME280;48134;53.586;10.610;2024-03-02T07:21:28;99841.84;;;5.93;100.00
62150;BME280;48134;53.586;10.610;2024-03-02T07:23:57;99844.25;;;5.94;100.00
62150;BME280;48134;53.586;10.610;2024-03-02T07:26:31;99845.38;;;5.99;100.00
62150;BME280;48134;53.586;10.610;2024-03-02T07:29:06;99846.19;;;6.04;100.00
62150;BME280;48134;53.586;10.610;2024-03-02T07:31:39;99859.97;;;6.08;100.00
62150;BME280;48134;53.586;10.610;2024-03-02T07:34:07;99859.69;;;6.09;100.00
62150;BME280;48134;53.586;10.610;2024-03-02T07:36:40;99853.47;;;6.09;100.00
62150;BME280;48134;53.586;10.610;2024-03-02T07:39:14;99853.47;;;6.14;100.00
62150;BME280;48134;53.586;10.610;2024-03-02T07:41:42;99862.41;;;6.15;100.00
62150;BME280;48134;53.586;10.610;2024-03-02T07:44:17;99856.47;;;6.18;100.00
62150;BME280;48134;53.586;10.610;2024-03-02T07:46:50;99864.56;;;6.23;100.00
62150;BME280;48134;53.586;10.610;2024-03-02T07:49:24;99871.03;;;6.27;100.00
62150;BME280;48134;53.586;10.610;2024-03-02T07:51:52;99868.31;;;6.32;100.00
62150;BME280;48134;53.586;10.610;2024-03-02T07:54:25;99862.66;;;6.39;100.00
62150;BME280;48134;53.586;10.610;2024-03-02T07:56:58;99865.91;;;6.41;100.00
62150;BME280;48134;53.586;10.610;2024-03-02T07:59:28;99861.28;;;6.46;100.00
62150;BME280;48134;53.586;10.610;2024-03-02T08:02:02;99869.94;;;6.49;100.00
62150;BME280;48134;53.586;10.610;2024-03-02T08:04:35;99872.63;;;6.54;100.00
62150;BME280;48134;53.586;10.610;2024-03-02T08:07:04;99871.00;;;6.63;100.00
62150;BME280;48134;53.586;10.610;2024-03-02T08:09:32;99868.28;;;6.68;100.00
62150;BME280;48134;53.586;10.610;2024-03-02T08:12:06;99875.31;;;6.69;100.00
62150;BME280;48134;53.586;10.610;2024-03-02T08:14:40;99873.16;;;6.71;100.00
62150;BME280;48134;53.586;10.610;2024-03-02T08:17:14;99864.22;;;6.76;100.00
62150;BME280;48134;53.586;10.610;2024-03-02T08:19:47;99869.06;;;6.89;100.00
62150;BME280;48134;53.586;10.610;2024-03-02T08:22:16;99875.81;;;6.81;100.00
62150;BME280;48134;53.586;10.610;2024-03-02T08:24:44;99888.78;;;6.95;100.00
62150;BME280;48134;53.586;10.610;2024-03-02T08:27:13;99887.38;;;7.13;100.00
62150;BME280;48134;53.586;10.610;2024-03-02T08:29:43;99885.72;;;7.22;100.00
62150;BME280;48134;53.586;10.610;2024-03-02T08:32:11;99898.63;;;7.36;100.00
62150;BME280;48134;53.586;10.610;2024-03-02T08:34:39;99892.59;;;7.54;100.00
62150;BME280;48134;53.586;10.610;2024-03-02T08:37:12;99896.97;;;7.45;100.00
62150;BME280;48134;53.586;10.610;2024-03-02T08:39:45;99911.56;;;7.49;100.00
62150;BME280;48134;53.586;10.610;2024-03-02T08:42:19;99906.97;;;7.49;100.00
62150;BME280;48134;53.586;10.610;2024-03-02T08:44:53;99905.06;;;7.50;100.00
62150;BME280;48134;53.586;10.610;2024-03-02T08:47:26;99905.56;;;7.62;100.00
62150;BME280;48134;53.586;10.610;2024-03-02T08:50:00;99910.44;;;7.60;100.00
62150;BME280;48134;53.586;10.610;2024-03-02T08:52:33;99914.16;;;7.75;100.00
62150;BME280;48134;53.586;10.610;2024-03-02T08:55:07;99910.94;;;7.68;100.00
62150;BME280;48134;53.586;10.610;2024-03-02T08:57:40;99915.81;;;7.71;100.00
62150;BME280;48134;53.586;10.610;2024-03-02T09:00:16;99920.09;;;7.77;100.00
62150;BME280;48134;53.586;10.610;2024-03-02T09:02:45;99914.97;;;7.75;100.00
62150;BME280;48134;53.586;10.610;2024-03-02T09:05:14;99921.25;;;7.60;100.00
62150;BME280;48134;53.586;10.610;2024-03-02T09:07:43;99914.19;;;7.70;100.00
62150;BME280;48134;53.586;10.610;2024-03-02T09:10:16;99916.88;;;7.70;100.00
62150;BME280;48134;53.586;10.610;2024-03-02T09:12:44;99918.22;;;7.72;100.00
62150;BME280;48134;53.586;10.610;2024-03-02T09:15:19;99915.47;;;7.77;100.00
62150;BME280;48134;53.586;10.610;2024-03-02T09:17:53;99918.16;;;7.82;100.00
62150;BME280;48134;53.586;10.610;2024-03-02T09:20:26;99920.00;;;7.92;100.00
62150;BME280;48134;53.586;10.610;2024-03-02T09:22:59;99913.81;;;7.87;100.00
62150;BME280;48134;53.586;10.610;2024-03-02T09:25:32;99915.59;;;8.02;100.00
62150;BME280;48134;53.586;10.610;2024-03-02T09:28:06;99917.53;;;8.01;100.00
62150;BME280;48134;53.586;10.610;2024-03-02T09:30:41;99914.44;;;8.13;100.00
62150;BME280;48134;53.586;10.610;2024-03-02T09:33:14;99919.53;;;8.20;100.00
62150;BME280;48134;53.586;10.610;2024-03-02T09:35:47;99909.72;;;8.29;100.00
62150;BME280;48134;53.586;10.610;2024-03-02T09:38:16;99910.44;;;8.40;100.00
62150;BME280;48134;53.586;10.610;2024-03-02T09:40:45;99916.09;;;8.48;100.00
62150;BME280;48134;53.586;10.610;2024-03-02T09:43:18;99924.50;;;8.47;100.00
62150;BME280;48134;53.586;10.610;2024-03-02T09:45:53;99922.28;;;8.54;100.00
62150;BME280;48134;53.586;10.610;2024-03-02T09:48:26;99923.47;;;8.72;100.00
62150;BME280;48134;53.586;10.610;2024-03-02T09:51:00;99920.69;;;8.82;100.00
62150;BME280;48134;53.586;10.610;2024-03-02T09:53:35;99929.00;;;8.91;100.00
62150;BME280;48134;53.586;10.610;2024-03-02T09:56:08;99938.59;;;9.08;100.00
62150;BME280;48134;53.586;10.610;2024-03-02T09:58:42;99932.53;;;9.16;100.00
62150;BME280;48134;53.586;10.610;2024-03-02T10:01:17;99925.09;;;9.27;100.00
62150;BME280;48134;53.586;10.610;2024-03-02T10:03:51;99928.75;;;9.36;100.00
62150;BME280;48134;53.586;10.610;2024-03-02T10:06:25;99931.13;;;9.43;100.00
62150;BME280;48134;53.586;10.610;2024-03-02T10:08:55;99927.75;;;9.51;100.00
62150;BME280;48134;53.586;10.610;2024-03-02T10:11:29;99934.97;;;9.61;100.00
62150;BME280;48134;53.586;10.610;2024-03-02T10:14:07;99937.28;;;9.73;100.00
62150;BME280;48134;53.586;10.610;2024-03-02T10:16:43;99929.50;;;9.85;100.00
62150;BME280;48134;53.586;10.610;2024-03-02T10:19:18;99932.50;;;9.83;100.00
62150;BME280;48134;53.586;10.610;2024-03-02T10:21:47;99923.31;;;9.79;100.00
62150;BME280;48134;53.586;10.610;2024-03-02T10:24:22;99931.97;;;9.81;100.00
62150;BME280;48134;53.586;10.610;2024-03-02T10:26:55;99926.59;;;9.76;100.00
62150;BME280;48134;53.586;10.610;2024-03-02T10:29:29;99927.44;;;9.96;100.00
62150;BME280;48134;53.586;10.610;2024-03-02T10:32:04;99921.06;;;9.86;100.00
62150;BME280;48134;53.586;10.610;2024-03-02T10:34:40;99919.56;;;9.94;100.00
62150;BME280;48134;53.586;10.610;2024-03-02T10:37:14;99922.94;;;10.05;100.00
62150;BME280;48134;53.586;10.610;2024-03-02T10:39:45;99932.41;;;10.08;100.00
62150;BME280;48134;53.586;10.610;2024-03-02T10:42:19;99930.66;;;10.17;100.00
62150;BME280;48134;53.586;10.610;2024-03-02T10:44:52;99931.69;;;10.21;100.00
62150;BME280;48134;53.586;10.610;2024-03-02T10:47:29;99930.31;;;10.04;100.00
62150;BME280;48134;53.586;10.610;2024-03-02T10:50:04;99925.22;;;10.17;100.00
62150;BME280;48134;53.586;10.610;2024-03-02T10:52:40;99927.81;;;10.08;100.00
62150;BME280;48134;53.586;10.610;2024-03-02T10:55:14;99919.66;;;10.08;100.00
62150;BME280;48134;53.586;10.610;2024-03-02T10:57:50;99921.22;;;10.28;100.00
62150;BME280;48134;53.586;10.610;2024-03-02T11:00:25;99928.97;;;10.40;100.00
62150;BME280;48134;53.586;10.610;2024-03-02T11:03:05;99927.56;;;10.43;100.00
62150;BME280;48134;53.586;10.610;2024-03-02T11:05:44;99931.59;;;10.45;100.00
62150;BME280;48134;53.586;10.610;2024-03-02T11:08:13;99922.63;;;10.45;100.00
62150;BME280;48134;53.586;10.610;2024-03-02T11:10:47;99926.06;;;10.50;100.00
62150;BME280;48134;53.586;10.610;2024-03-02T11:13:22;99926.91;;;10.51;100.00
62150;BME280;48134;53.586;10.610;2024-03-02T11:15:59;99926.09;;;10.64;100.00
62150;BME280;48134;53.586;10.610;2024-03-02T11:18:39;99933.41;;;10.69;100.00
62150;BME280;48134;53.586;10.610;2024-03-02T11:21:13;99931.34;;;10.61;100.00
62150;BME280;48134;53.586;10.610;2024-03-02T11:23:46;99926.50;;;10.58;100.00
62150;BME280;48134;53.586;10.610;2024-03-02T11:26:20;99917.66;;;10.66;100.00
62150;BME280;48134;53.586;10.610;2024-03-02T11:28:50;99920.97;;;10.63;100.00
62150;BME280;48134;53.586;10.610;2024-03-02T11:31:18;99921.75;;;10.63;100.00
62150;BME280;48134;53.586;10.610;2024-03-02T11:33:53;99915.44;;;10.68;100.00
62150;BME280;48134;53.586;10.610;2024-03-02T11:36:21;99913.66;;;10.77;100.00
62150;BME280;48134;53.586;10.610;2024-03-02T11:38:50;99921.63;;;10.87;100.00
62150;BME280;48134;53.586;10.610;2024-03-02T11:41:20;99926.38;;;11.10;100.00
62150;BME280;48134;53.586;10.610;2024-03-02T11:43:57;99917.41;;;11.09;100.00
62150;BME280;48134;53.586;10.610;2024-03-02T11:46:27;99918.59;;;11.03;100.00
62150;BME280;48134;53.586;10.610;2024-03-02T11:49:01;99922.13;;;10.89;100.00
62150;BME280;48134;53.586;10.610;2024-03-02T11:51:38;99916.59;;;11.09;100.00
62150;BME280;48134;53.586;10.610;2024-03-02T11:54:23;99921.25;;;11.08;100.00
62150;BME280;48134;53.586;10.610;2024-03-02T11:56:52;99916.09;;;11.06;100.00
62150;BME280;48134;53.586;10.610;2024-03-02T11:59:22;99908.13;;;11.10;100.00
62150;BME280;48134;53.586;10.610;2024-03-02T12:01:51;99901.09;;;11.09;100.00
62150;BME280;48134;53.586;10.610;2024-03-02T12:04:21;99912.06;;;11.18;100.00
62150;BME280;48134;53.586;10.610;2024-03-02T12:06:55;99911.66;;;11.25;100.00
62150;BME280;48134;53.586;10.610;2024-03-02T12:09:31;99919.00;;;11.10;100.00
62150;BME280;48134;53.586;10.610;2024-03-02T12:12:05;99924.34;;;11.01;100.00
62150;BME280;48134;53.586;10.610;2024-03-02T12:14:35;99922.75;;;11.14;100.00
62150;BME280;48134;53.586;10.610;2024-03-02T12:17:08;99912.78;;;11.23;100.00
62150;BME280;48134;53.586;10.610;2024-03-02T12:19:37;99908.63;;;11.12;100.00
62150;BME280;48134;53.586;10.610;2024-03-02T12:22:11;99912.97;;;11.13;100.00
62150;BME280;48134;53.586;10.610;2024-03-02T12:24:39;99913.47;;;11.15;100.00
62150;BME280;48134;53.586;10.610;2024-03-02T12:27:17;99919.53;;;11.26;100.00
62150;BME280;48134;53.586;10.610;2024-03-02T12:29:54;99902.66;;;11.24;100.00
62150;BME280;48134;53.586;10.610;2024-03-02T12:32:22;99909.25;;;11.23;100.00
62150;BME280;48134;53.586;10.610;2024-03-02T12:34:57;99896.13;;;11.25;100.00
62150;BME280;48134;53.586;10.610;2024-03-02T12:37:30;99902.47;;;11.34;100.00
62150;BME280;48134;53.586;10.610;2024-03-02T12:40:04;99896.94;;;11.26;100.00
62150;BME280;48134;53.586;10.610;2024-03-02T12:42:33;99914.38;;;11.25;100.00
62150;BME280;48134;53.586;10.610;2024-03-02T12:45:06;99901.09;;;11.09;100.00
62150;BME280;48134;53.586;10.610;2024-03-02T12:47:41;99905.91;;;11.12;100.00
62150;BME280;48134;53.586;10.610;2024-03-02T12:50:16;99899.75;;;11.20;100.00
62150;BME280;48134;53.586;10.610;2024-03-02T12:52:52;99907.31;;;11.10;100.00
62150;BME280;48134;53.586;10.610;2024-03-02T12:55:21;99910.97;;;11.19;100.00
62150;BME280;48134;53.586;10.610;2024-03-02T12:57:54;99904.19;;;11.16;100.00
62150;BME280;48134;53.586;10.610;2024-03-02T13:00:24;99903.59;;;11.05;100.00
62150;BME280;48134;53.586;10.610;2024-03-02T13:02:52;99900.06;;;11.05;100.00
62150;BME280;48134;53.586;10.610;2024-03-02T13:05:29;99899.25;;;11.04;100.00
62150;BME280;48134;53.586;10.610;2024-03-02T13:08:03;99910.13;;;11.04;100.00
62150;BME280;48134;53.586;10.610;2024-03-02T13:10:38;99899.94;;;10.96;100.00
62150;BME280;48134;53.586;10.610;2024-03-02T13:13:11;99909.03;;;10.92;100.00
62150;BME280;48134;53.586;10.610;2024-03-02T13:15:42;99915.47;;;10.96;100.00